Time;durP1;ratioP1;P1;durP2;ratioP2;P2;SDS_P1;SDS_P2;PMS_P1;PMS_P2;Temp;Humidity;BMP_temperature;BMP_pressure;BME280_temperature;BME280_humidity;BME280_pressure;Samples;Min_cycle;Max_cycle;Signal;HPM_P1;HPM_P2
2022/07/21 00:01:39;;;;;;;19.40;17.80;;;;;;;;;;5033872;28;20447;-75
2022/07/21 00:04:07;;;;;;;19.17;17.63;;;;;;;;;;5034764;28;20540;-75
2022/07/21 00:06:34;;;;;;;19.87;18.00;;;;;;;;;;5034597;28;20512;-75
2022/07/21 00:09:02;;;;;;;20.67;18.50;;;;;;;;;;5036578;28;20460;-75
2022/07/21 00:11:29;;;;;;;20.63;18.83;;;;;;;;;;5053531;28;20499;-74
2022/07/21 00:13:56;;;;;;;19.73;18.10;;;;;;;;;;5053488;28;20989;-75
2022/07/21 00:16:23;;;;;;;20.47;18.67;;;;;;;;;;5053493;28;20445;-74
2022/07/21 00:18:50;;;;;;;20.63;18.77;;;;;;;;;;5053964;28;20441;-75
2022/07/21 00:21:17;;;;;;;20.83;19.13;;;;;;;;;;5053618;28;20526;-75
2022/07/21 00:23:44;;;;;;;21.10;19.50;;;;;;;;;;5052744;28;20462;-75
2022/07/21 00:26:12;;;;;;;22.07;20.27;;;;;;;;;;5052601;28;20929;-75
2022/07/21 00:28:39;;;;;;;22.33;20.47;;;;;;;;;;5052836;28;20441;-74
2022/07/21 00:31:06;;;;;;;21.10;19.50;;;;;;;;;;5052841;28;20866;-75
2022/07/21 00:33:33;;;;;;;20.20;18.53;;;;;;;;;;5052847;28;20565;-75
2022/07/21 00:36:00;;;;;;;17.80;16.10;;;;;;;;;;5053684;28;20442;-75
2022/07/21 00:38:27;;;;;;;19.13;17.43;;;;;;;;;;5054157;28;20857;-75
2022/07/21 00:40:55;;;;;;;18.07;16.63;;;;;;;;;;5053808;28;20438;-75
2022/07/21 00:43:23;;;;;;;19.33;17.73;;;;;;;;;;5053095;28;20552;-77
2022/07/21 00:45:53;;;;;;;18.33;16.63;;;;;;;;;;5053598;28;20448;-76
2022/07/21 00:48:20;;;;;;;18.17;16.50;;;;;;;;;;5053663;28;20449;-75
2022/07/21 00:50:47;;;;;;;18.83;17.33;;;;;;;;;;5053606;28;20515;-75
2022/07/21 00:53:14;;;;;;;18.47;16.87;;;;;;;;;;5053455;28;21017;-75
2022/07/21 00:55:43;;;;;;;17.70;16.30;;;;;;;;;;5053926;28;20507;-75
2022/07/21 00:58:11;;;;;;;18.90;17.30;;;;;;;;;;5052844;28;20930;-75
2022/07/21 01:00:39;;;;;;;18.70;17.20;;;;;;;;;;5053082;28;20468;-76
2022/07/21 01:03:06;;;;;;;18.10;16.60;;;;;;;;;;5052564;28;20469;-77
2022/07/21 01:05:34;;;;;;;17.80;16.00;;;;;;;;;;5052690;28;20445;-74
2022/07/21 01:08:02;;;;;;;18.70;17.10;;;;;;;;;;5052424;28;20433;-75
2022/07/21 01:10:30;;;;;;;17.80;16.20;;;;;;;;;;5037403;28;20526;-75
2022/07/21 01:12:57;;;;;;;19.23;17.53;;;;;;;;;;5032432;28;20498;-75
2022/07/21 01:15:24;;;;;;;18.33;16.77;;;;;;;;;;5032390;28;20520;-76
2022/07/21 01:17:53;;;;;;;18.10;16.60;;;;;;;;;;5032522;28;20957;-75
2022/07/21 01:20:21;;;;;;;17.97;16.47;;;;;;;;;;5032419;28;20508;-75
2022/07/21 01:22:50;;;;;;;18.07;16.47;;;;;;;;;;5032469;28;20984;-74
2022/07/21 01:25:18;;;;;;;18.43;16.83;;;;;;;;;;5032025;28;20477;-75
2022/07/21 01:27:45;;;;;;;18.73;17.20;;;;;;;;;;5032198;28;20459;-75
2022/07/21 01:30:13;;;;;;;18.83;17.43;;;;;;;;;;5032367;28;20446;-76
2022/07/21 01:32:40;;;;;;;17.10;15.80;;;;;;;;;;5031656;28;20474;-76
2022/07/21 01:35:09;;;;;;;18.00;16.63;;;;;;;;;;5032172;28;20454;-75
2022/07/21 01:37:38;;;;;;;18.33;16.83;;;;;;;;;;5031799;28;20508;-76
2022/07/21 01:42:52;;;;;;;17.70;16.10;;;;;;;;;;5031510;28;20973;-76
2022/07/21 01:45:19;;;;;;;19.03;17.30;;;;;;;;;;5032384;28;20454;-76
2022/07/21 01:47:46;;;;;;;18.67;16.87;;;;;;;;;;5031918;28;20860;-75
2022/07/21 01:50:13;;;;;;;18.03;16.43;;;;;;;;;;5031834;28;20450;-75
2022/07/21 01:52:40;;;;;;;16.80;15.20;;;;;;;;;;5032067;28;20553;-77
2022/07/21 01:55:09;;;;;;;17.00;15.33;;;;;;;;;;5031863;28;20951;-76
2022/07/21 01:57:36;;;;;;;16.10;14.80;;;;;;;;;;5032041;28;21007;-75
2022/07/21 02:00:04;;;;;;;15.43;14.23;;;;;;;;;;5031679;28;20496;-75
2022/07/21 02:02:31;;;;;;;15.73;14.33;;;;;;;;;;5031207;28;20454;-76
2022/07/21 02:04:58;;;;;;;16.00;14.60;;;;;;;;;;5031467;28;20942;-75
2022/07/21 02:07:25;;;;;;;16.20;14.77;;;;;;;;;;5031686;28;20446;-75
2022/07/21 02:09:52;;;;;;;15.53;14.33;;;;;;;;;;5041653;28;20441;-75
2022/07/21 02:12:20;;;;;;;15.47;14.20;;;;;;;;;;5051123;28;20472;-75
2022/07/21 02:14:47;;;;;;;15.30;14.13;;;;;;;;;;5050927;28;20693;-75
2022/07/21 02:17:14;;;;;;;14.57;13.57;;;;;;;;;;5051561;28;20499;-75
2022/07/21 02:19:41;;;;;;;15.93;14.60;;;;;;;;;;5051338;28;20512;-75
2022/07/21 02:22:08;;;;;;;15.00;13.73;;;;;;;;;;5051475;28;20441;-74
2022/07/21 02:24:35;;;;;;;16.03;14.53;;;;;;;;;;5050884;28;20527;-76
2022/07/21 02:27:02;;;;;;;15.50;14.10;;;;;;;;;;5051214;28;20498;-76
2022/07/21 02:29:31;;;;;;;16.57;15.37;;;;;;;;;;5051116;28;20445;-75
2022/07/21 02:31:58;;;;;;;16.50;15.20;;;;;;;;;;5050909;28;20802;-75
2022/07/21 02:34:25;;;;;;;17.17;15.40;;;;;;;;;;5051628;28;20540;-75
2022/07/21 02:36:52;;;;;;;17.00;15.33;;;;;;;;;;5051227;28;20449;-76
2022/07/21 02:39:20;;;;;;;16.43;15.03;;;;;;;;;;5051467;28;20453;-75
2022/07/21 02:41:47;;;;;;;17.57;16.07;;;;;;;;;;5051627;28;20872;-76
2022/07/21 02:44:14;;;;;;;18.00;16.20;;;;;;;;;;5051186;28;20457;-76
2022/07/21 02:46:42;;;;;;;17.33;16.03;;;;;;;;;;5052811;28;20503;-75
2022/07/21 02:49:10;;;;;;;16.10;14.63;;;;;;;;;;5055577;28;21018;-75
2022/07/21 02:51:37;;;;;;;14.47;13.27;;;;;;;;;;5055414;28;20453;-76
2022/07/21 02:54:04;;;;;;;14.60;13.50;;;;;;;;;;5055369;28;20477;-77
2022/07/21 02:56:31;;;;;;;15.60;14.40;;;;;;;;;;5055537;28;20445;-75
2022/07/21 02:58:58;;;;;;;14.47;13.37;;;;;;;;;;5055864;28;20445;-76
2022/07/21 03:01:25;;;;;;;15.10;13.90;;;;;;;;;;5055085;28;20445;-75
2022/07/21 03:03:54;;;;;;;13.93;12.63;;;;;;;;;;5054949;28;20470;-75
2022/07/21 03:06:21;;;;;;;14.27;13.20;;;;;;;;;;5055782;28;20450;-76
2022/07/21 03:08:48;;;;;;;15.30;14.00;;;;;;;;;;5054236;28;20450;-75
2022/07/21 03:11:15;;;;;;;14.93;13.63;;;;;;;;;;5035405;28;20469;-75
2022/07/21 03:13:42;;;;;;;13.73;12.63;;;;;;;;;;5034634;28;20478;-75
2022/07/21 03:16:09;;;;;;;13.47;12.30;;;;;;;;;;5035076;28;20873;-76
2022/07/21 03:18:36;;;;;;;14.80;13.60;;;;;;;;;;5034920;28;20442;-75
2022/07/21 03:21:04;;;;;;;14.43;13.10;;;;;;;;;;5034852;28;20560;-76
2022/07/21 03:23:31;;;;;;;14.17;13.07;;;;;;;;;;5034947;28;20868;-75
2022/07/21 03:25:58;;;;;;;15.03;13.73;;;;;;;;;;5034891;28;20446;-74
2022/07/21 03:28:25;;;;;;;16.03;14.73;;;;;;;;;;5041877;28;20496;-75
2022/07/21 03:30:52;;;;;;;15.47;14.23;;;;;;;;;;5046417;28;20439;-75
2022/07/21 03:33:19;;;;;;;13.77;12.73;;;;;;;;;;5045366;28;20462;-74
2022/07/21 03:35:47;;;;;;;14.50;13.20;;;;;;;;;;5046458;28;20450;-74
2022/07/21 03:38:15;;;;;;;14.87;13.67;;;;;;;;;;5046367;28;20446;-76
2022/07/21 03:40:42;;;;;;;14.30;13.00;;;;;;;;;;5044885;28;20514;-75
2022/07/21 03:43:09;;;;;;;13.43;12.23;;;;;;;;;;5034413;28;20887;-75
2022/07/21 03:45:37;;;;;;;15.63;12.97;;;;;;;;;;5034923;28;20449;-76
2022/07/21 03:48:05;;;;;;;15.20;13.80;;;;;;;;;;5035072;28;20446;-75
2022/07/21 03:50:32;;;;;;;15.00;13.80;;;;;;;;;;5034935;28;20453;-76
2022/07/21 03:53:00;;;;;;;14.50;13.30;;;;;;;;;;5034359;28;20462;-76
2022/07/21 03:55:29;;;;;;;13.27;12.27;;;;;;;;;;5034460;28;20485;-75
2022/07/21 03:57:56;;;;;;;14.23;13.13;;;;;;;;;;5034506;28;20561;-75
2022/07/21 04:00:26;;;;;;;13.93;12.93;;;;;;;;;;5034421;28;20512;-76
2022/07/21 04:02:53;;;;;;;14.80;13.67;;;;;;;;;;5033909;28;20470;-76
2022/07/21 04:05:20;;;;;;;14.23;13.13;;;;;;;;;;5034237;28;20446;-74
2022/07/21 04:07:49;;;;;;;15.87;14.27;;;;;;;;;;5033668;28;20442;-75
2022/07/21 04:10:17;;;;;;;15.60;14.30;;;;;;;;;;5047388;28;20433;-75
2022/07/21 04:12:46;;;;;;;15.47;14.27;;;;;;;;;;5053461;28;20465;-75
2022/07/21 04:15:13;;;;;;;15.67;14.27;;;;;;;;;;5054139;28;20817;-75
2022/07/21 04:17:40;;;;;;;17.03;15.47;;;;;;;;;;5053709;28;20909;-75
2022/07/21 04:20:08;;;;;;;16.27;14.87;;;;;;;;;;5053522;28;21000;-75
2022/07/21 04:22:36;;;;;;;16.17;14.90;;;;;;;;;;5053132;28;20810;-75
2022/07/21 04:25:03;;;;;;;17.80;16.30;;;;;;;;;;5054018;28;20933;-75
2022/07/21 04:27:31;;;;;;;16.10;14.90;;;;;;;;;;5054036;28;20453;-75
2022/07/21 04:29:59;;;;;;;16.30;14.97;;;;;;;;;;5053556;28;20864;-75
2022/07/21 04:32:26;;;;;;;16.03;14.27;;;;;;;;;;5053576;28;20445;-75
2022/07/21 04:34:53;;;;;;;15.93;14.73;;;;;;;;;;5052960;28;20477;-75
2022/07/21 04:37:20;;;;;;;17.10;15.20;;;;;;;;;;5053225;28;20445;-75
2022/07/21 04:39:47;;;;;;;15.73;14.10;;;;;;;;;;5053586;28;20445;-75
2022/07/21 04:42:14;;;;;;;16.00;14.70;;;;;;;;;;5054475;28;20472;-75
2022/07/21 04:44:41;;;;;;;15.87;14.60;;;;;;;;;;5054633;28;20437;-74
2022/07/21 04:47:09;;;;;;;14.77;13.67;;;;;;;;;;5055075;28;20457;-75
2022/07/21 04:49:36;;;;;;;15.33;13.93;;;;;;;;;;5054695;28;21078;-76
2022/07/21 04:52:04;;;;;;;15.03;13.83;;;;;;;;;;5053732;28;20446;-74
2022/07/21 04:54:31;;;;;;;15.77;14.37;;;;;;;;;;5052726;28;20510;-75
2022/07/21 04:56:59;;;;;;;16.30;14.67;;;;;;;;;;5052617;28;20545;-76
2022/07/21 04:59:26;;;;;;;14.60;13.40;;;;;;;;;;5053326;28;20454;-76
2022/07/21 05:01:53;;;;;;;14.60;13.27;;;;;;;;;;5058674;28;20548;-76
2022/07/21 05:04:21;;;;;;;14.00;12.80;;;;;;;;;;5067905;28;20504;-74
2022/07/21 05:06:48;;;;;;;14.40;13.37;;;;;;;;;;5058805;28;20499;-75
2022/07/21 05:09:15;;;;;;;13.30;12.20;;;;;;;;;;5048359;28;20484;-75
2022/07/21 05:11:42;;;;;;;14.13;13.03;;;;;;;;;;5034564;28;20479;-75
2022/07/21 05:14:09;;;;;;;13.57;12.47;;;;;;;;;;5035932;28;20523;-76
2022/07/21 05:16:36;;;;;;;14.63;13.43;;;;;;;;;;5033663;28;20492;-75
2022/07/21 05:19:03;;;;;;;13.40;12.40;;;;;;;;;;5033397;28;20450;-76
2022/07/21 05:21:31;;;;;;;13.97;12.63;;;;;;;;;;5033766;28;20443;-77
2022/07/21 05:23:59;;;;;;;13.83;12.53;;;;;;;;;;5032607;28;20536;-76
2022/07/21 05:26:26;;;;;;;13.63;12.53;;;;;;;;;;5032794;28;20553;-76
2022/07/21 05:28:53;;;;;;;14.70;12.60;;;;;;;;;;5032895;28;20443;-76
2022/07/21 05:31:20;;;;;;;14.27;13.13;;;;;;;;;;5032571;28;20453;-77
2022/07/21 05:33:47;;;;;;;14.37;13.27;;;;;;;;;;5032632;28;20513;-75
2022/07/21 05:36:14;;;;;;;15.37;14.17;;;;;;;;;;5032666;28;20552;-76
2022/07/21 05:38:42;;;;;;;14.50;13.50;;;;;;;;;;5032812;28;20434;-75
2022/07/21 05:41:09;;;;;;;14.90;13.67;;;;;;;;;;5032946;28;20446;-75
2022/07/21 05:43:36;;;;;;;14.57;13.37;;;;;;;;;;5032749;28;20474;-75
2022/07/21 05:46:04;;;;;;;14.93;13.73;;;;;;;;;;5033049;28;20509;-74
2022/07/21 05:48:31;;;;;;;15.10;13.90;;;;;;;;;;5032775;28;20443;-76
2022/07/21 05:50:58;;;;;;;15.70;14.50;;;;;;;;;;5033090;28;20447;-75
2022/07/21 05:53:25;;;;;;;15.23;14.10;;;;;;;;;;5032530;28;20528;-76
2022/07/21 05:55:53;;;;;;;17.00;15.53;;;;;;;;;;5033192;28;20470;-75
2022/07/21 05:58:23;;;;;;;15.90;14.70;;;;;;;;;;5032235;28;20504;-77
2022/07/21 06:03:31;;;;;;;14.17;12.83;;;;;;;;;;5031971;28;20553;-77
2022/07/21 06:05:58;;;;;;;14.80;13.70;;;;;;;;;;5032807;28;20492;-76
2022/07/21 06:08:25;;;;;;;15.67;14.47;;;;;;;;;;5032473;28;20472;-78
2022/07/21 06:10:54;;;;;;;15.00;13.80;;;;;;;;;;5050447;28;20442;-76
2022/07/21 06:13:21;;;;;;;16.40;15.00;;;;;;;;;;5052390;28;20457;-76
2022/07/21 06:15:48;;;;;;;16.40;14.70;;;;;;;;;;5052550;28;20816;-76
2022/07/21 06:18:15;;;;;;;15.53;14.03;;;;;;;;;;5052508;28;20941;-75
2022/07/21 06:20:43;;;;;;;14.60;13.40;;;;;;;;;;5053207;28;20941;-76
2022/07/21 06:23:10;;;;;;;15.37;14.03;;;;;;;;;;5051737;28;20461;-76
2022/07/21 06:25:37;;;;;;;14.27;13.17;;;;;;;;;;5054636;28;20433;-77
2022/07/21 06:28:05;;;;;;;14.97;13.70;;;;;;;;;;5054015;28;20442;-76
2022/07/21 06:30:32;;;;;;;14.13;13.03;;;;;;;;;;5055704;28;20441;-75
2022/07/21 06:32:59;;;;;;;13.73;12.50;;;;;;;;;;5066101;28;20492;-75
2022/07/21 06:35:26;;;;;;;13.73;12.57;;;;;;;;;;5065134;28;20564;-77
2022/07/21 06:37:54;;;;;;;13.10;12.10;;;;;;;;;;5067153;28;20876;-75
2022/07/21 06:40:21;;;;;;;13.33;12.10;;;;;;;;;;5068059;28;20434;-75
2022/07/21 06:42:48;;;;;;;12.80;11.70;;;;;;;;;;5067501;28;21200;-75
2022/07/21 06:45:16;;;;;;;13.53;12.43;;;;;;;;;;5070142;28;20456;-76
2022/07/21 06:47:43;;;;;;;12.47;11.40;;;;;;;;;;5072283;28;20578;-74
2022/07/21 06:50:11;;;;;;;12.90;11.90;;;;;;;;;;5073496;28;20479;-75
2022/07/21 06:52:38;;;;;;;13.70;12.50;;;;;;;;;;5069864;28;20492;-77
2022/07/21 06:55:06;;;;;;;13.27;12.10;;;;;;;;;;5072319;28;20481;-75
2022/07/21 06:57:34;;;;;;;13.50;12.50;;;;;;;;;;5067838;28;20503;-76
2022/07/21 07:00:01;;;;;;;11.80;10.90;;;;;;;;;;5065481;28;20488;-77
2022/07/21 07:02:29;;;;;;;13.33;11.93;;;;;;;;;;5059674;28;20449;-75
2022/07/21 07:04:56;;;;;;;12.23;11.33;;;;;;;;;;5062190;28;20448;-76
2022/07/21 07:07:23;;;;;;;11.63;10.83;;;;;;;;;;5060668;28;20445;-76
2022/07/21 07:09:50;;;;;;;11.90;11.00;;;;;;;;;;5055866;28;20438;-75
2022/07/21 07:12:17;;;;;;;11.97;11.07;;;;;;;;;;5053512;28;20454;-75
2022/07/21 07:14:44;;;;;;;11.67;10.77;;;;;;;;;;5050026;28;20470;-75
2022/07/21 07:17:13;;;;;;;12.27;11.17;;;;;;;;;;5041486;28;20446;-76
2022/07/21 07:19:41;;;;;;;10.50;9.50;;;;;;;;;;5033763;28;20454;-76
2022/07/21 07:22:08;;;;;;;11.20;10.10;;;;;;;;;;5033915;28;20513;-79
2022/07/21 07:24:35;;;;;;;11.03;10.17;;;;;;;;;;5032816;28;20474;-76
2022/07/21 07:27:02;;;;;;;12.03;10.87;;;;;;;;;;5034129;28;20431;-77
2022/07/21 07:29:31;;;;;;;11.50;10.60;;;;;;;;;;5035574;28;20435;-77
2022/07/21 07:31:58;;;;;;;11.77;10.97;;;;;;;;;;5035994;28;20465;-77
2022/07/21 07:34:25;;;;;;;12.13;11.13;;;;;;;;;;5034928;28;20966;-77
2022/07/21 07:36:53;;;;;;;11.20;10.23;;;;;;;;;;5035799;28;20530;-78
2022/07/21 07:39:20;;;;;;;11.53;10.43;;;;;;;;;;5035393;28;20855;-77
2022/07/21 07:41:47;;;;;;;10.77;9.87;;;;;;;;;;5034579;28;20846;-76
2022/07/21 07:44:14;;;;;;;12.53;11.40;;;;;;;;;;5034387;28;20833;-76
2022/07/21 07:46:41;;;;;;;10.90;10.10;;;;;;;;;;5034734;28;20496;-77
2022/07/21 07:49:09;;;;;;;10.70;9.70;;;;;;;;;;5034371;28;20450;-76
2022/07/21 07:51:36;;;;;;;11.13;10.07;;;;;;;;;;5034126;28;21024;-76
2022/07/21 07:54:05;;;;;;;10.80;9.93;;;;;;;;;;5034349;28;20466;-77
2022/07/21 07:56:32;;;;;;;10.47;9.67;;;;;;;;;;5034000;28;21025;-77
2022/07/21 07:58:59;;;;;;;10.60;9.80;;;;;;;;;;5034531;28;20446;-75
2022/07/21 08:01:26;;;;;;;10.70;9.70;;;;;;;;;;5034421;28;20536;-76
2022/07/21 08:03:53;;;;;;;9.93;9.17;;;;;;;;;;5033818;28;20528;-76
2022/07/21 08:06:20;;;;;;;10.80;10.00;;;;;;;;;;5034492;28;20492;-77
2022/07/21 08:08:47;;;;;;;10.60;9.80;;;;;;;;;;5035313;28;20454;-75
2022/07/21 08:11:15;;;;;;;10.57;9.77;;;;;;;;;;5053692;28;20449;-77
2022/07/21 08:13:42;;;;;;;9.87;9.00;;;;;;;;;;5053403;28;20973;-77
2022/07/21 08:16:11;;;;;;;9.60;8.73;;;;;;;;;;5053810;28;20485;-76
2022/07/21 08:18:39;;;;;;;10.90;10.00;;;;;;;;;;5053405;28;20483;-77
2022/07/21 08:21:06;;;;;;;10.00;9.17;;;;;;;;;;5053800;28;20446;-76
2022/07/21 08:23:33;;;;;;;9.07;8.37;;;;;;;;;;5053054;28;20534;-77
2022/07/21 08:26:00;;;;;;;9.37;8.67;;;;;;;;;;5053783;28;20441;-76
2022/07/21 08:28:28;;;;;;;9.23;8.53;;;;;;;;;;5053383;28;20446;-76
2022/07/21 08:30:55;;;;;;;8.43;7.70;;;;;;;;;;5053688;28;20449;-76
2022/07/21 08:33:22;;;;;;;8.27;7.60;;;;;;;;;;5052855;28;20477;-77
2022/07/21 08:35:49;;;;;;;8.97;8.33;;;;;;;;;;5053239;28;20481;-76
2022/07/21 08:38:18;;;;;;;8.50;7.70;;;;;;;;;;5053838;28;20803;-77
2022/07/21 08:40:46;;;;;;;8.97;8.20;;;;;;;;;;5052923;28;20456;-77
2022/07/21 08:43:14;;;;;;;9.03;8.23;;;;;;;;;;5052965;28;20473;-77
2022/07/21 08:45:43;;;;;;;9.13;8.23;;;;;;;;;;5052249;28;20456;-78
2022/07/21 08:48:10;;;;;;;9.17;8.57;;;;;;;;;;5053074;28;20450;-76
2022/07/21 08:50:38;;;;;;;8.47;7.80;;;;;;;;;;5052916;28;20445;-76
2022/07/21 08:53:06;;;;;;;8.90;8.30;;;;;;;;;;5052639;28;20977;-76
2022/07/21 08:55:34;;;;;;;8.40;7.70;;;;;;;;;;5052261;28;20477;-76
2022/07/21 08:58:01;;;;;;;9.27;8.57;;;;;;;;;;5053130;28;20495;-76
2022/07/21 09:00:28;;;;;;;10.30;9.50;;;;;;;;;;5052788;28;20433;-76
2022/07/21 09:03:11;;;;;;;9.60;8.90;;;;;;;;;;5052182;28;20473;-76
2022/07/21 09:05:38;;;;;;;9.27;8.57;;;;;;;;;;5053126;28;20449;-76
2022/07/21 09:08:05;;;;;;;8.60;8.00;;;;;;;;;;5052424;28;20847;-76
2022/07/21 09:10:33;;;;;;;8.60;7.90;;;;;;;;;;5037091;28;20501;-78
2022/07/21 09:13:00;;;;;;;10.97;8.30;;;;;;;;;;5032643;28;20474;-77
2022/07/21 09:15:28;;;;;;;8.90;8.23;;;;;;;;;;5032587;28;20993;-77
2022/07/21 09:18:13;;;;;;;8.17;7.57;;;;;;;;;;5032841;28;20989;-78
2022/07/21 09:20:40;;;;;;;8.50;7.80;;;;;;;;;;5033440;28;20538;-77
2022/07/21 09:23:09;;;;;;;8.67;7.93;;;;;;;;;;5033838;28;20825;-78
2022/07/21 09:25:38;;;;;;;8.83;8.13;;;;;;;;;;5032311;28;20817;-76
2022/07/21 09:28:11;;;;;;;8.10;7.40;;;;;;;;;;5032865;28;20939;-77
2022/07/21 09:30:51;;;;;;;7.70;7.07;;;;;;;;;;5034512;28;20596;-76
2022/07/21 09:33:24;;;;;;;7.37;6.87;;;;;;;;;;5037384;28;20457;-77
2022/07/21 09:35:55;;;;;;;6.47;6.07;;;;;;;;;;5032075;28;20478;-77
2022/07/21 09:38:22;;;;;;;7.07;6.57;;;;;;;;;;5032555;28;20447;-77
2022/07/21 09:40:49;;;;;;;6.90;6.40;;;;;;;;;;5032637;28;20505;-78
2022/07/21 09:43:29;;;;;;;7.37;6.77;;;;;;;;;;5031502;28;20520;-76
2022/07/21 09:45:57;;;;;;;7.00;6.33;;;;;;;;;;5032497;28;20438;-78
2022/07/21 09:48:31;;;;;;;7.17;6.47;;;;;;;;;;5032172;28;20458;-76
2022/07/21 09:50:58;;;;;;;7.27;6.67;;;;;;;;;;5032777;28;20807;-76
2022/07/21 09:53:25;;;;;;;7.57;7.00;;;;;;;;;;5032306;28;20521;-77
2022/07/21 09:55:54;;;;;;;6.77;6.30;;;;;;;;;;5038254;28;20799;-76
2022/07/21 09:58:21;;;;;;;7.83;7.13;;;;;;;;;;5034642;28;20442;-77
2022/07/21 10:00:49;;;;;;;7.13;6.63;;;;;;;;;;5031865;28;20868;-77
2022/07/21 10:03:17;;;;;;;6.80;6.27;;;;;;;;;;5031768;28;20481;-78
2022/07/21 10:05:45;;;;;;;7.30;6.80;;;;;;;;;;5031847;28;20438;-76
2022/07/21 10:08:13;;;;;;;6.60;6.20;;;;;;;;;;5031754;28;20849;-78
2022/07/21 10:10:40;;;;;;;6.00;5.60;;;;;;;;;;5049426;28;20446;-78
2022/07/21 10:13:08;;;;;;;6.13;5.73;;;;;;;;;;5053272;28;20519;-77
2022/07/21 10:15:35;;;;;;;6.37;5.87;;;;;;;;;;5051815;28;20445;-78
2022/07/21 10:18:02;;;;;;;6.17;5.67;;;;;;;;;;5053304;28;20441;-76
2022/07/21 10:20:34;;;;;;;5.43;5.03;;;;;;;;;;5052896;28;20951;-78
2022/07/21 10:23:07;;;;;;;6.33;5.90;;;;;;;;;;5053618;28;20458;-78
2022/07/21 10:25:35;;;;;;;7.20;6.60;;;;;;;;;;5053591;28;20473;-81
2022/07/21 10:28:17;;;;;;;9.63;7.60;;;;;;;;;;5054171;28;20433;-78
2022/07/21 10:30:45;;;;;;;6.20;5.80;;;;;;;;;;5054315;28;20948;-79
2022/07/21 10:33:12;;;;;;;7.03;6.37;;;;;;;;;;5052588;28;20803;-77
2022/07/21 10:35:42;;;;;;;6.43;6.03;;;;;;;;;;5051742;28;20456;-78
2022/07/21 10:38:25;;;;;;;6.27;5.87;;;;;;;;;;5052622;28;21007;-76
2022/07/21 10:40:53;;;;;;;6.13;5.70;;;;;;;;;;5051608;28;20434;-76
2022/07/21 10:43:42;;;;;;;5.47;5.07;;;;;;;;;;5050460;28;20767;-77
2022/07/21 10:46:34;;;;;;;6.77;5.63;;;;;;;;;;5051931;28;20856;-77
2022/07/21 10:49:01;;;;;;;5.20;4.90;;;;;;;;;;5052487;28;20679;-78
2022/07/21 10:51:28;;;;;;;4.60;4.27;;;;;;;;;;5052640;28;20438;-77
2022/07/21 10:54:14;;;;;;;5.63;4.40;;;;;;;;;;5052012;28;20464;-79
2022/07/21 10:56:42;;;;;;;5.67;5.27;;;;;;;;;;5052018;28;20493;-78
2022/07/21 10:59:09;;;;;;;5.93;5.50;;;;;;;;;;5052492;28;20467;-76
2022/07/21 11:01:38;;;;;;;6.30;5.70;;;;;;;;;;5051945;28;20442;-77
2022/07/21 11:04:09;;;;;;;5.90;5.60;;;;;;;;;;5051255;28;20481;-77
2022/07/21 11:06:38;;;;;;;4.97;4.67;;;;;;;;;;5051270;28;20878;-77
2022/07/21 11:09:09;;;;;;;5.33;4.73;;;;;;;;;;5048763;28;20446;-77
2022/07/21 11:11:37;;;;;;;5.73;5.33;;;;;;;;;;5035300;28;20450;-77
2022/07/21 11:14:07;;;;;;;6.37;5.83;;;;;;;;;;5034480;28;20969;-76
2022/07/21 11:16:59;;;;;;;5.97;5.57;;;;;;;;;;5035661;28;20655;-76
2022/07/21 11:19:35;;;;;;;5.50;5.10;;;;;;;;;;5026354;28;20606;-77
2022/07/21 11:22:03;;;;;;;5.50;5.10;;;;;;;;;;5034915;28;20449;-76
2022/07/21 11:24:30;;;;;;;5.80;4.47;;;;;;;;;;5034329;28;20516;-76
2022/07/21 11:26:58;;;;;;;5.17;4.70;;;;;;;;;;5037936;28;20446;-76
2022/07/21 11:29:27;;;;;;;4.80;4.50;;;;;;;;;;5037105;28;20469;-76
2022/07/21 11:31:54;;;;;;;5.80;4.50;;;;;;;;;;5036015;28;20438;-76
2022/07/21 11:34:21;;;;;;;5.57;5.10;;;;;;;;;;5034722;28;20973;-78
2022/07/21 11:36:48;;;;;;;5.40;5.00;;;;;;;;;;5034381;28;20601;-77
2022/07/21 11:39:19;;;;;;;5.00;4.60;;;;;;;;;;5035621;28;20469;-76
2022/07/21 11:41:46;;;;;;;4.40;4.10;;;;;;;;;;5036049;28;20891;-75
2022/07/21 11:44:23;;;;;;;4.30;4.10;;;;;;;;;;5035736;28;20477;-76
2022/07/21 11:46:53;;;;;;;5.13;4.73;;;;;;;;;;5036332;28;20450;-76
2022/07/21 11:49:20;;;;;;;4.47;4.17;;;;;;;;;;5037127;28;20446;-75
2022/07/21 11:51:48;;;;;;;4.70;4.30;;;;;;;;;;5037136;28;20450;-76
2022/07/21 11:54:23;;;;;;;5.73;5.33;;;;;;;;;;5035994;28;20541;-77
2022/07/21 11:56:51;;;;;;;5.60;5.10;;;;;;;;;;5036037;28;20522;-76
2022/07/21 11:59:18;;;;;;;5.13;4.80;;;;;;;;;;5035680;28;20461;-76
2022/07/21 12:01:53;;;;;;;5.20;4.80;;;;;;;;;;5034674;28;20500;-76
2022/07/21 12:04:31;;;;;;;5.57;5.17;;;;;;;;;;5035928;28;20773;-75
2022/07/21 12:06:58;;;;;;;6.43;5.90;;;;;;;;;;5038102;28;20441;-74
2022/07/21 12:09:26;;;;;;;5.17;4.77;;;;;;;;;;5056156;28;20760;-76
2022/07/21 12:11:53;;;;;;;4.90;4.60;;;;;;;;;;5070676;28;20472;-76
2022/07/21 12:14:22;;;;;;;5.40;4.90;;;;;;;;;;5070528;28;20462;-76
2022/07/21 12:16:50;;;;;;;5.13;4.83;;;;;;;;;;5070716;28;20500;-76
2022/07/21 12:19:19;;;;;;;5.13;4.63;;;;;;;;;;5071653;28;20438;-76
2022/07/21 12:21:47;;;;;;;5.33;4.90;;;;;;;;;;5057398;28;20499;-76
2022/07/21 12:24:15;;;;;;;4.20;4.00;;;;;;;;;;5053489;28;20461;-76
2022/07/21 12:26:42;;;;;;;5.00;4.70;;;;;;;;;;5053235;28;20926;-76
2022/07/21 12:29:09;;;;;;;5.00;4.60;;;;;;;;;;5055156;28;20533;-76
2022/07/21 12:31:37;;;;;;;6.20;5.67;;;;;;;;;;5053420;28;21241;-78
2022/07/21 12:34:15;;;;;;;5.53;5.20;;;;;;;;;;5053110;28;20466;-77
2022/07/21 12:36:44;;;;;;;5.67;5.27;;;;;;;;;;5053149;28;21008;-76
2022/07/21 12:39:55;;;;;;;5.97;5.47;;;;;;;;;;5053505;28;20863;-76
2022/07/21 12:42:07;;;;;;;5.60;5.27;;;;;;;;;;5052978;28;20811;-77
2022/07/21 12:44:34;;;;;;;6.60;6.10;;;;;;;;;;5052869;28;20473;-77
2022/07/21 12:47:13;;;;;;;6.90;6.47;;;;;;;;;;5053396;28;20437;-78
2022/07/21 12:49:54;;;;;;;7.40;6.80;;;;;;;;;;5053230;28;20469;-76
2022/07/21 12:52:23;;;;;;;8.97;6.83;;;;;;;;;;5053711;28;20441;-76
2022/07/21 12:54:50;;;;;;;6.60;6.07;;;;;;;;;;5057121;28;20442;-75
2022/07/21 12:57:17;;;;;;;6.60;6.20;;;;;;;;;;5056122;28;20538;-78
2022/07/21 12:59:44;;;;;;;7.33;6.83;;;;;;;;;;5053667;28;20454;-76
2022/07/21 13:02:11;;;;;;;7.33;6.63;;;;;;;;;;5053614;28;20472;-77
2022/07/21 13:04:38;;;;;;;6.90;6.50;;;;;;;;;;5054357;28;20465;-77
2022/07/21 13:07:05;;;;;;;6.93;6.33;;;;;;;;;;5054745;28;20556;-76
2022/07/21 13:09:34;;;;;;;7.30;6.60;;;;;;;;;;5046595;28;20469;-77
2022/07/21 13:12:01;;;;;;;7.43;6.83;;;;;;;;;;5033785;28;20430;-75
2022/07/21 13:14:28;;;;;;;7.63;7.03;;;;;;;;;;5034106;28;20462;-76
2022/07/21 13:16:56;;;;;;;7.37;6.87;;;;;;;;;;5034141;28;21003;-76
2022/07/21 13:19:24;;;;;;;7.00;6.43;;;;;;;;;;5034395;28;20463;-76
2022/07/21 13:21:51;;;;;;;7.33;6.83;;;;;;;;;;5033531;28;20536;-76
2022/07/21 13:24:18;;;;;;;6.87;6.40;;;;;;;;;;5034164;28;20477;-77
2022/07/21 13:26:46;;;;;;;8.50;7.80;;;;;;;;;;5036512;28;20430;-76
2022/07/21 13:29:13;;;;;;;7.47;7.07;;;;;;;;;;5035397;28;20477;-76
2022/07/21 13:31:40;;;;;;;7.30;6.80;;;;;;;;;;5038722;28;20438;-77
2022/07/21 13:34:08;;;;;;;7.30;6.70;;;;;;;;;;5037046;28;20462;-76
2022/07/21 13:36:36;;;;;;;6.90;6.40;;;;;;;;;;5033196;28;20532;-76
2022/07/21 13:39:03;;;;;;;6.97;6.37;;;;;;;;;;5033649;28;20477;-77
2022/07/21 13:41:31;;;;;;;6.40;5.90;;;;;;;;;;5033180;28;20450;-76
2022/07/21 13:44:00;;;;;;;7.63;6.93;;;;;;;;;;5033016;28;20473;-76
2022/07/21 13:46:27;;;;;;;7.20;6.70;;;;;;;;;;5035536;28;20512;-77
2022/07/21 13:48:54;;;;;;;7.30;6.70;;;;;;;;;;5034297;28;20459;-76
2022/07/21 13:51:22;;;;;;;7.07;6.60;;;;;;;;;;5033778;28;20443;-77
2022/07/21 13:53:49;;;;;;;6.73;6.23;;;;;;;;;;5033686;28;20454;-77
2022/07/21 13:56:17;;;;;;;5.90;5.60;;;;;;;;;;5034336;28;20492;-77
2022/07/21 13:58:44;;;;;;;5.70;5.40;;;;;;;;;;5032434;28;20505;-77
2022/07/21 14:01:14;;;;;;;6.43;6.03;;;;;;;;;;5032135;28;20446;-76
2022/07/21 14:03:42;;;;;;;6.40;6.00;;;;;;;;;;5032187;28;20467;-77
2022/07/21 14:06:09;;;;;;;7.10;6.43;;;;;;;;;;5032974;28;20450;-77
2022/07/21 14:08:36;;;;;;;6.10;5.70;;;;;;;;;;5032693;28;20450;-77
2022/07/21 14:11:03;;;;;;;5.47;5.17;;;;;;;;;;5052010;28;20438;-77
2022/07/21 14:13:30;;;;;;;6.00;5.60;;;;;;;;;;5052470;28;20461;-77
2022/07/21 14:15:57;;;;;;;6.10;5.60;;;;;;;;;;5055246;28;20437;-77
2022/07/21 14:18:25;;;;;;;7.07;6.03;;;;;;;;;;5064634;28;20481;-77
2022/07/21 14:20:52;;;;;;;6.50;6.00;;;;;;;;;;5065529;28;20453;-76
2022/07/21 14:23:20;;;;;;;5.40;5.10;;;;;;;;;;5062843;28;20464;-77
2022/07/21 14:25:47;;;;;;;6.00;5.50;;;;;;;;;;5061773;28;20445;-76
2022/07/21 14:28:14;;;;;;;6.20;5.80;;;;;;;;;;5059938;28;20449;-77
2022/07/21 14:30:42;;;;;;;6.20;5.80;;;;;;;;;;5061555;28;20441;-76
2022/07/21 14:33:09;;;;;;;6.40;6.00;;;;;;;;;;5061888;28;20453;-76
2022/07/21 14:35:37;;;;;;;5.93;5.63;;;;;;;;;;5061761;28;20445;-76
2022/07/21 14:38:04;;;;;;;5.40;5.10;;;;;;;;;;5053337;28;20539;-77
2022/07/21 14:40:32;;;;;;;5.67;5.20;;;;;;;;;;5051360;28;20586;-76